Toledo Express Airport
KTOL : now visible

Airfield :











YOU CAN JOIN US ON...

 
LOGIN :

Register | Disclaimer

   EN    FR    IT 

 









Legend :    VFR   Marginal VFR   IFR   Intensive IFR   Very Intensive IFR
Visi :
Ceiling :
>= 8 km
>= 3000ft
5 to 8 km
1000 to 3000 ft
1500m to 5 km
500 to 1000 ft
800 to 1500m
200 to 500 ft
< 800m
< 200 ft
Symbols :   Thunderstorms  Fog  Heavy snow  Heavy precipitations  Wind > 20 kt






- Airport Elevation : 683 ft
- IATA code : TOL


KTOL - Toledo Express

CURRENT METAR :
  • 192352Z 28012G20KT 10SM CLR 12/M04 A3004 RMK AO2 SLP172 T01221039 10150 20122 53007

EXPIRED METARs :
  • 192252Z 26015G23KT 10SM CLR 13/M04 A3003 RMK AO2 SLP169 T01281039
  • 192152Z 27015G25KT 10SM CLR 13/M04 A3002 RMK AO2 PK WND 28028/2101 SLP167 T01331044
  • 192052Z 27016G25KT 10SM CLR 14/M04 A3002 RMK AO2 PK WND 25029/1955 SLP165 T01441044 50003
  • 191952Z 25016KT 10SM CLR 14/M02 A3002 RMK AO2 PK WND 26029/1926 SLP165 T01441022

TAF KTOL
Valid from the 20 at 00:00 until the 21 at 00:00 UTC


192331Z 2000/2024 28014G22KT P6SM BKN200
FM200200 18009KT P6SM BKN100
FM201500 29015G25KT P6SM SCT050
KZOB FIR / North America



MET'MAP, your aeronautical weather chart ! - Copyright ORBIFLY December 2007 - Disclaimer

ORBIFLY MET'MAP TEAM :

Programming & Development : Alexandra Zaïnal
Original concept : Baudouin d'Aumeries
Technical & hardware support : Manuel Goepfert
Assistance : Marc-Olivier Méhu




SOURCES & CREDITS :

   NOAA       Earth
Advisory